createdAt,value
2018-08-13T00:01:24.277Z,45.22
2018-08-13T00:03:53.288Z,45.26
2018-08-13T00:06:25.663Z,45.38
2018-08-13T00:08:54.287Z,46.02
2018-08-13T00:11:28.722Z,46.11
2018-08-13T00:17:15.377Z,46.37
2018-08-13T00:19:44.849Z,46.48
2018-08-13T00:22:13.147Z,46.52
2018-08-13T00:24:43.905Z,46.67
2018-08-13T00:27:12.560Z,46.88
2018-08-13T00:29:40.957Z,47.28
2018-08-13T00:32:09.414Z,47.60
2018-08-13T00:34:38.697Z,47.81
2018-08-13T00:37:07.655Z,48.22
2018-08-13T00:39:37.754Z,49.27
2018-08-13T00:42:06.534Z,49.73
2018-08-13T00:44:36.851Z,49.44
2018-08-13T00:47:07.570Z,49.55
2018-08-13T00:49:36.775Z,49.77
2018-08-13T00:52:06.281Z,49.64
2018-08-13T00:54:34.890Z,49.79
2018-08-13T00:57:03.686Z,49.89
2018-08-13T00:59:33.339Z,49.72
2018-08-13T01:02:01.602Z,49.77
2018-08-13T01:04:30.320Z,49.78
2018-08-13T01:06:59.816Z,49.62
2018-08-13T01:09:28.015Z,49.85
2018-08-13T01:11:56.941Z,49.92
2018-08-13T01:14:25.554Z,50.14
2018-08-13T01:16:53.888Z,50.46
2018-08-13T01:19:23.204Z,50.38
2018-08-13T01:21:51.300Z,50.61
2018-08-13T01:24:21.345Z,50.90
2018-08-13T01:26:50.330Z,51.20
2018-08-13T01:29:19.566Z,51.06
2018-08-13T01:31:48.018Z,50.79
2018-08-13T01:34:16.608Z,50.96
2018-08-13T01:36:45.336Z,51.27
2018-08-13T01:39:13.770Z,51.42
2018-08-13T01:41:42.735Z,51.38
2018-08-13T01:44:10.896Z,51.35
2018-08-13T01:46:39.212Z,51.22
2018-08-13T01:49:08.388Z,51.11
2018-08-13T01:51:36.548Z,51.45
2018-08-13T01:54:04.700Z,51.40
2018-08-13T01:56:34.076Z,51.44
2018-08-13T01:59:03.179Z,51.73
2018-08-13T02:01:31.442Z,51.90
2018-08-13T02:04:01.580Z,52.07
2018-08-13T02:06:30.744Z,52.38
2018-08-13T02:08:59.180Z,52.41
2018-08-13T02:11:27.916Z,53.13
2018-08-13T02:13:56.115Z,53.28
2018-08-13T02:16:24.840Z,53.19
2018-08-13T02:18:52.958Z,53.52
2018-08-13T02:21:21.084Z,54.49
2018-08-13T02:23:49.963Z,54.84
2018-08-13T02:26:18.248Z,55.07
2018-08-13T02:28:47.142Z,55.24
2018-08-13T02:31:15.251Z,55.12
2018-08-13T02:33:44.602Z,54.89
2018-08-13T02:36:13.166Z,54.72
2018-08-13T02:38:41.573Z,54.63
2018-08-13T02:41:09.742Z,54.34
2018-08-13T02:43:38.136Z,54.49
2018-08-13T02:46:06.888Z,55.00
2018-08-13T02:48:36.761Z,55.16
2018-08-13T02:51:05.340Z,55.12
2018-08-13T02:53:33.684Z,55.41
2018-08-13T02:56:02.513Z,55.56
2018-08-13T02:58:31.095Z,55.49
2018-08-13T03:01:00.749Z,55.57
2018-08-13T03:03:30.800Z,55.96
2018-08-13T03:06:00.213Z,55.96
2018-08-13T03:08:30.624Z,55.88
2018-08-13T03:10:59.495Z,56.04
2018-08-13T03:13:29.373Z,56.70
2018-08-13T03:15:57.505Z,56.76
2018-08-13T03:18:27.267Z,57.01
2018-08-13T03:20:57.225Z,57.04
2018-08-13T03:23:26.091Z,56.74
2018-08-13T03:25:55.038Z,56.55
2018-08-13T03:28:23.562Z,56.23
2018-08-13T03:30:53.388Z,56.96
2018-08-13T03:33:22.806Z,57.21
2018-08-13T03:35:51.153Z,57.05
2018-08-13T03:38:19.307Z,56.99
2018-08-13T03:40:48.075Z,57.10
2018-08-13T03:43:16.668Z,57.50
2018-08-13T03:45:45.754Z,57.74
2018-08-13T03:48:14.309Z,57.67
2018-08-13T03:50:42.629Z,57.83
2018-08-13T03:53:11.029Z,57.94
2018-08-13T03:55:39.809Z,58.16
2018-08-13T03:58:08.686Z,58.77
2018-08-13T04:00:37.128Z,59.22
2018-08-13T04:03:06.704Z,59.37
2018-08-13T04:05:34.948Z,60.02
2018-08-13T04:08:07.441Z,60.14
2018-08-13T04:10:37.175Z,60.25
2018-08-13T04:13:05.739Z,60.38
2018-08-13T04:15:41.248Z,59.87
2018-08-13T04:18:09.857Z,59.58
2018-08-13T04:23:36.182Z,59.73
2018-08-13T04:26:05.527Z,59.89
2018-08-13T04:28:34.072Z,60.03
2018-08-13T04:31:03.241Z,59.90
2018-08-13T04:33:31.669Z,59.78
2018-08-13T04:35:59.799Z,59.61
2018-08-13T04:38:28.885Z,59.58
2018-08-13T04:40:57.435Z,59.35
2018-08-13T04:43:25.581Z,59.17
2018-08-13T04:45:54.389Z,59.02
2018-08-13T04:48:23.262Z,58.97
2018-08-13T04:50:51.668Z,58.83
2018-08-13T04:55:53.561Z,58.51
2018-08-13T04:58:21.740Z,58.58
2018-08-13T05:00:50.462Z,58.51
2018-08-13T05:03:19.135Z,58.57
2018-08-13T05:05:48.088Z,58.42
2018-08-13T05:08:17.120Z,58.29
2018-08-13T05:10:47.596Z,58.31
2018-08-13T05:13:16.008Z,58.19
2018-08-13T05:15:44.798Z,57.83
2018-08-13T05:18:13.275Z,57.64
2018-08-13T05:20:41.981Z,57.19
2018-08-13T05:23:10.877Z,57.53
2018-08-13T05:25:39.150Z,57.33
2018-08-13T05:28:08.068Z,56.83
2018-08-13T05:30:37.544Z,56.54
2018-08-13T05:33:05.708Z,56.47
2018-08-13T05:35:34.487Z,56.37
2018-08-13T05:38:03.280Z,56.31
2018-08-13T05:40:31.790Z,56.47
2018-08-13T05:43:00.255Z,55.87
2018-08-13T05:45:28.957Z,55.43
2018-08-13T05:47:57.282Z,55.25
2018-08-13T05:50:25.868Z,55.04
2018-08-13T05:52:54.366Z,54.95
2018-08-13T05:55:22.615Z,54.97
2018-08-13T05:57:52.676Z,54.70
2018-08-13T06:00:21.244Z,54.77
2018-08-13T06:02:50.651Z,54.62
2018-08-13T06:05:19.024Z,54.63
2018-08-13T06:07:48.602Z,54.68
2018-08-13T06:10:16.820Z,54.39
2018-08-13T06:12:45.500Z,53.70
2018-08-13T06:15:14.918Z,53.30
2018-08-13T06:17:43.877Z,53.00
2018-08-13T06:20:12.706Z,52.77
2018-08-13T06:22:43.631Z,52.58
2018-08-13T06:25:13.929Z,52.19
2018-08-13T06:27:42.381Z,51.74
2018-08-13T06:30:13.922Z,51.36
2018-08-13T06:32:42.700Z,51.13
2018-08-13T06:35:11.967Z,51.20
2018-08-13T06:37:42.926Z,51.19
2018-08-13T06:40:11.364Z,51.30
2018-08-13T06:42:39.901Z,50.76
2018-08-13T06:45:09.107Z,50.46
2018-08-13T06:47:37.979Z,50.13
2018-08-13T06:50:12.268Z,49.85
2018-08-13T06:52:42.567Z,49.35
2018-08-13T06:55:11.217Z,49.22
2018-08-13T06:57:39.716Z,48.67
2018-08-13T07:00:14.186Z,48.58
2018-08-13T07:02:42.989Z,48.33
2018-08-13T07:05:11.797Z,48.07
2018-08-13T07:07:40.509Z,47.54
2018-08-13T07:10:12.888Z,47.44
2018-08-13T07:12:45.147Z,47.25
2018-08-13T07:15:16.362Z,46.98
2018-08-13T07:17:45.072Z,46.01
2018-08-13T07:20:17.050Z,44.96
2018-08-13T07:22:46.028Z,42.99
2018-08-13T07:25:16.159Z,42.52
2018-08-13T07:27:45.248Z,42.40
2018-08-13T07:30:15.063Z,41.51
2018-08-13T07:32:44.539Z,41.02
2018-08-13T07:35:12.827Z,39.90
2018-08-13T07:37:41.931Z,38.80
2018-08-13T07:40:13.311Z,38.10
2018-08-13T07:42:44.214Z,37.33
2018-08-13T07:45:12.806Z,36.90
2018-08-13T07:47:41.417Z,36.16
2018-08-13T07:50:12.193Z,35.78
2018-08-13T07:52:42.396Z,35.14
2018-08-13T07:55:11.798Z,34.85
2018-08-13T07:57:40.435Z,33.92
2018-08-13T08:00:11.601Z,33.54
2018-08-13T08:02:40.096Z,32.84
2018-08-13T08:05:13.094Z,32.46
2018-08-13T08:07:48.125Z,31.29
2018-08-13T08:10:18.213Z,32.10
2018-08-13T08:12:46.568Z,31.40
2018-08-13T08:15:17.300Z,30.79
2018-08-13T08:17:46.355Z,30.55
2018-08-13T08:20:15.884Z,30.83
2018-08-13T08:22:45.930Z,31.18
2018-08-13T08:25:17.726Z,31.45
2018-08-13T08:27:48.195Z,30.76
2018-08-13T08:30:16.716Z,30.65
2018-08-13T08:32:45.701Z,30.28
2018-08-13T08:35:15.668Z,29.57
2018-08-13T08:37:43.983Z,29.48
2018-08-13T08:40:15.010Z,28.75
2018-08-13T08:42:44.217Z,28.25
2018-08-13T08:45:15.651Z,27.87
2018-08-13T08:47:45.692Z,28.15
2018-08-13T08:50:16.108Z,28.63
2018-08-13T08:52:53.096Z,28.82
2018-08-13T08:55:26.973Z,29.36
2018-08-13T08:57:55.385Z,29.62
2018-08-13T09:00:24.576Z,29.53
2018-08-13T09:02:55.097Z,29.72
2018-08-13T09:05:23.652Z,30.12
2018-08-13T09:07:52.314Z,30.68
2018-08-13T09:10:20.503Z,30.79
2018-08-13T09:12:48.672Z,30.91
2018-08-13T09:15:17.546Z,31.57
2018-08-13T09:17:57.639Z,31.79
2018-08-13T09:20:36.808Z,32.16
2018-08-13T09:23:16.454Z,32.42
2018-08-13T09:25:55.597Z,32.32
2018-08-13T09:28:36.473Z,32.52
2018-08-13T09:31:20.709Z,31.99
2018-08-13T09:34:00.160Z,31.79
2018-08-13T09:36:36.589Z,31.51
2018-08-13T09:39:14.334Z,32.04
2018-08-13T09:41:42.594Z,32.18
2018-08-13T09:44:11.314Z,32.23
2018-08-13T09:46:39.871Z,32.49
2018-08-13T09:49:08.158Z,32.75
2018-08-13T09:51:37.534Z,33.24
2018-08-13T09:54:07.780Z,33.57
2018-08-13T09:56:38.651Z,33.88
2018-08-13T09:59:08.240Z,34.42
2018-08-13T10:01:40.874Z,34.59
2018-08-13T10:04:09.256Z,35.03
2018-08-13T10:06:40.013Z,34.81
2018-08-13T10:09:08.887Z,35.11
2018-08-13T10:11:38.529Z,35.38
2018-08-13T10:14:06.800Z,35.71
2018-08-13T10:16:36.797Z,36.27
2018-08-13T10:19:06.372Z,36.69
2018-08-13T10:21:34.765Z,37.12
2018-08-13T10:24:03.328Z,37.78
2018-08-13T10:26:31.609Z,38.00
2018-08-13T10:29:00.171Z,38.43
2018-08-13T10:31:28.621Z,38.89
2018-08-13T10:33:57.100Z,38.85
2018-08-13T10:36:25.261Z,39.33
2018-08-13T10:38:54.469Z,39.41
2018-08-13T10:41:22.666Z,39.56
2018-08-13T10:43:51.124Z,39.63
2018-08-13T10:46:19.309Z,39.79
2018-08-13T10:48:47.530Z,39.93
2018-08-13T10:51:16.408Z,40.05
2018-08-13T10:53:45.110Z,40.11
2018-08-13T10:56:13.276Z,40.55
2018-08-13T10:58:42.732Z,40.79
2018-08-13T11:01:11.286Z,41.02
2018-08-13T11:03:39.551Z,41.43
2018-08-13T11:06:08.061Z,41.12
2018-08-13T11:08:36.713Z,40.77
2018-08-13T11:11:05.120Z,40.96
2018-08-13T11:13:35.576Z,40.75
2018-08-13T11:16:04.977Z,40.12
2018-08-13T11:18:33.211Z,40.19
2018-08-13T11:21:01.673Z,40.19
2018-08-13T11:23:29.972Z,40.31
2018-08-13T11:25:58.881Z,40.58
2018-08-13T11:28:27.537Z,40.32
2018-08-13T11:30:55.733Z,40.57
2018-08-13T11:33:24.012Z,40.94
2018-08-13T11:35:52.476Z,41.01
2018-08-13T11:38:20.915Z,41.26
2018-08-13T11:40:48.974Z,41.69
2018-08-13T11:43:17.320Z,41.82
2018-08-13T11:45:46.122Z,41.89
2018-08-13T11:48:16.174Z,42.46
2018-08-13T11:50:44.851Z,42.93
2018-08-13T11:53:13.182Z,43.38
2018-08-13T11:55:41.553Z,43.79
2018-08-13T11:58:10.087Z,45.50
2018-08-13T12:00:39.156Z,47.93
2018-08-13T12:03:08.411Z,51.17
2018-08-13T12:05:37.750Z,52.48
2018-08-13T12:08:07.035Z,53.93
2018-08-13T12:10:35.330Z,56.90
2018-08-13T12:13:04.563Z,57.26
2018-08-13T12:15:32.726Z,57.75
2018-08-13T12:18:01.087Z,58.87
2018-08-13T12:20:29.630Z,60.25
2018-08-13T12:22:57.832Z,60.65
2018-08-13T12:25:28.742Z,60.80
2018-08-13T12:27:56.969Z,61.40
2018-08-13T12:30:25.598Z,62.63
2018-08-13T12:32:54.392Z,62.53
2018-08-13T12:35:22.989Z,62.83
2018-08-13T12:37:51.498Z,63.32
2018-08-13T12:40:20.206Z,64.04
2018-08-13T12:42:48.388Z,64.50
2018-08-13T12:45:17.988Z,64.00
2018-08-13T12:47:47.190Z,65.59
2018-08-13T12:50:23.680Z,65.49
2018-08-13T12:52:52.554Z,66.73
2018-08-13T12:55:21.738Z,66.20
2018-08-13T12:57:50.039Z,65.98
2018-08-13T13:00:19.030Z,66.66
2018-08-13T13:02:47.513Z,66.34
2018-08-13T13:05:16.726Z,66.66
2018-08-13T13:07:45.014Z,67.38
2018-08-13T13:10:14.970Z,67.85
2018-08-13T13:12:43.326Z,67.69
2018-08-13T13:15:14.400Z,68.62
2018-08-13T13:17:43.470Z,69.09
2018-08-13T13:20:20.212Z,69.07
2018-08-13T13:22:50.002Z,70.11
2018-08-13T13:25:19.107Z,69.34
2018-08-13T13:27:47.297Z,68.24
2018-08-13T13:30:16.912Z,68.50
2018-08-13T13:32:45.595Z,66.96
2018-08-13T13:35:15.428Z,67.12
2018-08-13T13:37:43.869Z,67.49
2018-08-13T13:40:13.694Z,67.64
2018-08-13T13:42:41.877Z,67.57
2018-08-13T13:45:11.228Z,66.62
2018-08-13T13:47:39.720Z,66.59
2018-08-13T13:50:12.578Z,67.19
2018-08-13T13:52:41.394Z,66.63
2018-08-13T13:55:09.730Z,66.37
2018-08-13T13:57:37.894Z,66.59
2018-08-13T14:00:15.170Z,66.63
2018-08-13T14:02:43.609Z,66.10
2018-08-13T14:05:12.127Z,66.85
2018-08-13T14:07:40.643Z,66.32
2018-08-13T14:10:14.552Z,66.26
2018-08-13T14:12:44.401Z,66.01
2018-08-13T14:15:13.856Z,63.35
2018-08-13T14:17:42.973Z,62.97
2018-08-13T14:20:12.069Z,63.10
2018-08-13T14:22:40.856Z,63.89
2018-08-13T14:25:10.925Z,62.51
2018-08-13T14:27:40.017Z,62.51
2018-08-13T14:30:12.431Z,61.85
2018-08-13T14:32:43.329Z,60.39
2018-08-13T14:35:12.095Z,60.33
2018-08-13T14:37:40.954Z,59.86
2018-08-13T14:40:11.255Z,59.19
2018-08-13T14:42:43.766Z,58.46
2018-08-13T14:45:14.103Z,57.67
2018-08-13T14:47:45.080Z,56.95
2018-08-13T14:50:14.850Z,57.72
2018-08-13T14:52:44.778Z,58.08
2018-08-13T14:55:15.486Z,58.44
2018-08-13T14:57:44.248Z,58.64
2018-08-13T15:00:24.102Z,58.93
2018-08-13T15:02:56.144Z,59.13
2018-08-13T15:05:27.915Z,59.35
2018-08-13T15:07:57.468Z,59.56
2018-08-13T15:10:26.447Z,59.55
2018-08-13T15:12:55.565Z,59.77
2018-08-13T15:15:23.917Z,60.07
2018-08-13T15:17:52.650Z,59.89
2018-08-13T15:20:22.967Z,59.66
2018-08-13T15:22:51.918Z,58.69
2018-08-13T15:25:21.241Z,58.54
2018-08-13T15:27:49.773Z,58.70
2018-08-13T15:30:19.942Z,58.83
2018-08-13T15:32:49.583Z,59.05
2018-08-13T15:35:17.712Z,59.04
2018-08-13T15:37:46.575Z,59.11
2018-08-13T15:40:16.885Z,59.28
2018-08-13T15:42:45.287Z,58.99
2018-08-13T15:45:16.867Z,59.23
2018-08-13T15:47:45.917Z,59.44
2018-08-13T15:50:17.949Z,59.02
2018-08-13T15:52:46.709Z,59.11
2018-08-13T15:55:15.484Z,59.33
2018-08-13T15:57:44.331Z,59.59
2018-08-13T16:00:19.137Z,59.42
2018-08-13T16:02:48.651Z,59.56
2018-08-13T16:05:18.980Z,59.17
2018-08-13T16:07:48.952Z,58.06
2018-08-13T16:10:18.299Z,58.22
2018-08-13T16:12:46.971Z,58.19
2018-08-13T16:15:15.372Z,57.77
2018-08-13T16:17:45.229Z,57.40
2018-08-13T16:20:17.815Z,57.10
2018-08-13T16:22:47.560Z,56.40
2018-08-13T16:25:17.277Z,56.19
2018-08-13T16:27:48.146Z,56.06
2018-08-13T16:30:23.825Z,56.35
2018-08-13T16:32:55.434Z,56.35
2018-08-13T16:35:24.586Z,56.66
2018-08-13T16:37:54.675Z,55.53
2018-08-13T16:40:23.723Z,55.40
2018-08-13T16:42:52.822Z,55.21
2018-08-13T16:45:22.583Z,55.89
2018-08-13T16:47:53.840Z,55.28
2018-08-13T16:50:30.017Z,55.13
2018-08-13T16:52:59.324Z,55.32
2018-08-13T16:55:30.593Z,55.40
2018-08-13T16:57:59.957Z,55.67
2018-08-13T17:00:30.329Z,55.55
2018-08-13T17:03:03.126Z,54.91
2018-08-13T17:05:34.080Z,55.37
2018-08-13T17:08:03.982Z,55.24
2018-08-13T17:10:32.364Z,55.11
2018-08-13T17:13:01.572Z,55.11
2018-08-13T17:15:32.176Z,55.15
2018-08-13T17:18:01.592Z,54.16
2018-08-13T17:20:33.627Z,54.25
2018-08-13T17:23:07.067Z,55.00
2018-08-13T17:25:36.279Z,54.34
2018-08-13T17:28:09.525Z,54.53
2018-08-13T17:30:39.247Z,54.45
2018-08-13T17:33:09.111Z,55.12
2018-08-13T17:35:38.440Z,55.72
2018-08-13T17:38:11.259Z,56.20
2018-08-13T17:40:40.314Z,56.33
2018-08-13T17:43:10.434Z,56.77
2018-08-13T17:45:39.204Z,56.88
2018-08-13T17:48:09.982Z,57.16
2018-08-13T17:50:39.581Z,57.76
2018-08-13T17:53:10.396Z,58.00
2018-08-13T17:55:38.859Z,58.35
2018-08-13T17:58:08.027Z,58.69
2018-08-13T18:00:37.393Z,58.73
2018-08-13T18:03:06.075Z,58.98
2018-08-13T18:05:34.496Z,59.34
2018-08-13T18:08:05.106Z,59.69
2018-08-13T18:10:36.172Z,59.77
2018-08-13T18:13:08.230Z,59.85
2018-08-13T18:15:36.856Z,60.52
2018-08-13T18:18:06.009Z,60.99
2018-08-13T18:20:34.580Z,61.27
2018-08-13T18:23:04.122Z,61.48
2018-08-13T18:25:33.815Z,61.75
2018-08-13T18:28:02.026Z,62.18
2018-08-13T18:30:30.770Z,62.28
2018-08-13T18:33:00.036Z,62.53
2018-08-13T18:35:28.298Z,62.71
2018-08-13T18:37:57.368Z,62.88
2018-08-13T18:40:30.645Z,63.05
2018-08-13T18:42:59.361Z,63.55
2018-08-13T18:45:27.845Z,63.45
2018-08-13T18:47:56.949Z,63.80
2018-08-13T18:50:25.164Z,63.79
2018-08-13T18:52:53.576Z,64.09
2018-08-13T18:55:23.234Z,63.74
2018-08-13T18:57:52.237Z,63.50
2018-08-13T19:00:23.784Z,63.29
2018-08-13T19:02:52.775Z,63.16
2018-08-13T19:05:21.731Z,63.14
2018-08-13T19:07:50.769Z,63.02
2018-08-13T19:10:24.262Z,62.96
2018-08-13T19:12:53.242Z,63.21
2018-08-13T19:15:23.800Z,63.29
2018-08-13T19:17:53.314Z,63.64
2018-08-13T19:20:22.106Z,63.76
2018-08-13T19:22:50.643Z,64.52
2018-08-13T19:25:22.526Z,64.63
2018-08-13T19:27:50.804Z,64.86
2018-08-13T19:30:20.028Z,64.88
2018-08-13T19:32:49.472Z,64.90
2018-08-13T19:35:18.246Z,65.08
2018-08-13T19:37:46.897Z,65.23
2018-08-13T19:40:17.130Z,65.74
2018-08-13T19:42:46.467Z,65.85
2018-08-13T19:45:15.912Z,66.04
2018-08-13T19:47:45.060Z,66.13
2018-08-13T19:50:13.977Z,66.15
2018-08-13T19:52:43.409Z,66.65
2018-08-13T19:55:13.177Z,66.92
2018-08-13T19:57:41.498Z,67.36
2018-08-13T20:00:13.306Z,68.06
2018-08-13T20:02:41.791Z,68.44
2018-08-13T20:05:10.182Z,68.68
2018-08-13T20:07:38.615Z,69.14
2018-08-13T20:10:08.708Z,69.39
2018-08-13T20:12:36.864Z,69.65
2018-08-13T20:15:05.404Z,69.61
2018-08-13T20:17:33.833Z,69.77
2018-08-13T20:20:04.187Z,70.02
2018-08-13T20:22:32.765Z,70.07
2018-08-13T20:25:00.993Z,70.28
2018-08-13T20:27:29.481Z,70.68
2018-08-13T20:29:57.860Z,71.08
2018-08-13T20:32:27.064Z,71.59
2018-08-13T20:34:55.214Z,71.56
2018-08-13T20:37:23.418Z,71.72
2018-08-13T20:39:51.609Z,72.10
2018-08-13T20:42:20.042Z,72.58
2018-08-13T20:44:48.302Z,72.71
2018-08-13T20:47:17.560Z,73.35
2018-08-13T20:49:46.129Z,73.21
2018-08-13T20:52:14.443Z,73.34
2018-08-13T20:54:43.145Z,73.41
2018-08-13T20:57:11.433Z,73.51
2018-08-13T20:59:40.322Z,73.56
2018-08-13T21:02:09.448Z,73.82
2018-08-13T21:04:37.801Z,74.13
2018-08-13T21:07:06.837Z,74.41
2018-08-13T21:09:35.559Z,74.87
2018-08-13T21:12:03.881Z,74.94
2018-08-13T21:14:32.409Z,75.38
2018-08-13T21:17:01.204Z,75.18
2018-08-13T21:19:29.460Z,75.60
2018-08-13T21:21:57.686Z,76.42
2018-08-13T21:24:26.602Z,76.69
2018-08-13T21:26:55.225Z,75.35
2018-08-13T21:29:23.533Z,74.14
2018-08-13T21:31:52.199Z,73.31
2018-08-13T21:34:20.429Z,72.76
2018-08-13T21:36:48.923Z,72.54
2018-08-13T21:39:17.404Z,72.31
2018-08-13T21:41:45.792Z,70.93
2018-08-13T21:44:14.050Z,69.44
2018-08-13T21:46:42.805Z,68.11
2018-08-13T21:49:11.148Z,68.06
2018-08-13T21:51:39.616Z,68.07
2018-08-13T21:54:08.132Z,68.30
2018-08-13T21:56:37.278Z,68.61
2018-08-13T21:59:07.266Z,68.86
2018-08-13T22:01:41.787Z,69.45
2018-08-13T22:04:10.291Z,70.31
2018-08-13T22:06:38.457Z,71.26
2018-08-13T22:09:08.449Z,74.17
2018-08-13T22:11:36.796Z,76.53
2018-08-13T22:14:06.333Z,77.60
2018-08-13T22:16:34.445Z,78.87
2018-08-13T22:19:03.384Z,80.54
2018-08-13T22:21:31.870Z,80.97
2018-08-13T22:24:12.022Z,81.73
2018-08-13T22:26:40.711Z,82.54
2018-08-13T22:29:08.961Z,83.25
2018-08-13T22:31:37.871Z,83.95
2018-08-13T22:34:07.085Z,84.25
2018-08-13T22:36:35.344Z,84.79
2018-08-13T22:39:05.445Z,85.28
2018-08-13T22:41:34.306Z,85.35
2018-08-13T22:44:03.013Z,85.92
2018-08-13T22:46:31.819Z,85.89
2018-08-13T22:49:00.457Z,86.04
2018-08-13T22:51:28.994Z,85.82
2018-08-13T22:53:57.747Z,85.91
2018-08-13T22:56:26.304Z,85.97
2018-08-13T22:58:54.540Z,86.13
2018-08-13T23:01:23.293Z,86.05
2018-08-13T23:03:52.111Z,86.69
2018-08-13T23:06:20.623Z,87.09
2018-08-13T23:08:49.566Z,87.64
2018-08-13T23:11:17.738Z,87.84
2018-08-13T23:13:46.264Z,87.96
2018-08-13T23:16:14.460Z,88.10
2018-08-13T23:18:43.055Z,88.36
2018-08-13T23:21:11.245Z,88.58
2018-08-13T23:23:39.824Z,88.77
2018-08-13T23:26:08.314Z,89.19
2018-08-13T23:28:36.709Z,88.91
2018-08-13T23:31:05.234Z,88.76
2018-08-13T23:33:33.552Z,88.56
2018-08-13T23:36:02.015Z,88.32
2018-08-13T23:38:30.572Z,88.71
2018-08-13T23:40:59.001Z,88.84
2018-08-13T23:43:27.332Z,89.19
2018-08-13T23:45:56.015Z,89.69
2018-08-13T23:48:24.566Z,89.86
2018-08-13T23:50:53.633Z,90.02
2018-08-13T23:53:22.672Z,90.34
2018-08-13T23:55:51.079Z,90.40
2018-08-13T23:58:19.739Z,90.51
